sensor_id;sensor_type;location;lat;lon;timestamp;P1;durP1;ratioP1;P2;durP2;ratioP2
63217;SDS011;49314;48.278;16.378;2023-06-05T00:00:43;12.00;;;10.80;;
63217;SDS011;49314;48.278;16.378;2023-06-05T00:03:08;13.68;;;12.43;;
63217;SDS011;49314;48.278;16.378;2023-06-05T00:05:33;12.43;;;11.52;;
63217;SDS011;49314;48.278;16.378;2023-06-05T00:08:02;13.32;;;12.32;;
63217;SDS011;49314;48.278;16.378;2023-06-05T00:10:27;12.02;;;11.13;;
63217;SDS011;49314;48.278;16.378;2023-06-05T00:12:52;12.85;;;11.63;;
63217;SDS011;49314;48.278;16.378;2023-06-05T00:15:18;10.35;;;9.45;;
63217;SDS011;49314;48.278;16.378;2023-06-05T00:17:43;12.80;;;11.67;;
63217;SDS011;49314;48.278;16.378;2023-06-05T00:20:10;13.25;;;12.15;;
63217;SDS011;49314;48.278;16.378;2023-06-05T00:22:36;12.70;;;11.75;;
63217;SDS011;49314;48.278;16.378;2023-06-05T00:25:01;12.60;;;11.60;;
63217;SDS011;49314;48.278;16.378;2023-06-05T00:27:27;13.75;;;12.70;;
63217;SDS011;49314;48.278;16.378;2023-06-05T00:29:52;11.88;;;10.68;;
63217;SDS011;49314;48.278;16.378;2023-06-05T00:32:18;12.18;;;11.18;;
63217;SDS011;49314;48.278;16.378;2023-06-05T00:34:43;12.30;;;11.10;;
63217;SDS011;49314;48.278;16.378;2023-06-05T00:37:08;12.85;;;12.05;;
63217;SDS011;49314;48.278;16.378;2023-06-05T00:39:34;12.88;;;11.82;;
63217;SDS011;49314;48.278;16.378;2023-06-05T00:41:59;12.48;;;11.48;;
63217;SDS011;49314;48.278;16.378;2023-06-05T00:44:24;13.73;;;12.53;;
63217;SDS011;49314;48.278;16.378;2023-06-05T00:46:50;14.73;;;13.43;;
63217;SDS011;49314;48.278;16.378;2023-06-05T00:49:16;11.48;;;10.57;;
63217;SDS011;49314;48.278;16.378;2023-06-05T00:51:42;12.38;;;11.48;;
63217;SDS011;49314;48.278;16.378;2023-06-05T00:54:09;13.70;;;12.70;;
63217;SDS011;49314;48.278;16.378;2023-06-05T00:56:34;14.77;;;13.50;;
63217;SDS011;49314;48.278;16.378;2023-06-05T00:59:00;14.75;;;13.65;;
63217;SDS011;49314;48.278;16.378;2023-06-05T01:01:26;13.70;;;12.57;;
63217;SDS011;49314;48.278;16.378;2023-06-05T01:03:53;13.60;;;12.60;;
63217;SDS011;49314;48.278;16.378;2023-06-05T01:06:20;12.52;;;11.52;;
63217;SDS011;49314;48.278;16.378;2023-06-05T01:08:45;12.85;;;11.85;;
63217;SDS011;49314;48.278;16.378;2023-06-05T01:13:56;13.77;;;12.68;;
63217;SDS011;49314;48.278;16.378;2023-06-05T01:16:22;13.75;;;12.75;;
63217;SDS011;49314;48.278;16.378;2023-06-05T01:21:27;13.40;;;12.20;;
63217;SDS011;49314;48.278;16.378;2023-06-05T01:23:52;16.08;;;14.50;;
63217;SDS011;49314;48.278;16.378;2023-06-05T01:26:18;13.35;;;12.38;;
63217;SDS011;49314;48.278;16.378;2023-06-05T01:28:47;14.15;;;12.95;;
63217;SDS011;49314;48.278;16.378;2023-06-05T01:31:12;13.32;;;12.00;;
63217;SDS011;49314;48.278;16.378;2023-06-05T01:33:44;13.48;;;12.13;;
63217;SDS011;49314;48.278;16.378;2023-06-05T01:36:15;12.20;;;11.15;;
63217;SDS011;49314;48.278;16.378;2023-06-05T01:38:41;13.23;;;12.23;;
63217;SDS011;49314;48.278;16.378;2023-06-05T01:41:08;13.45;;;12.20;;
63217;SDS011;49314;48.278;16.378;2023-06-05T01:43:35;14.07;;;13.07;;
63217;SDS011;49314;48.278;16.378;2023-06-05T01:46:01;13.43;;;12.43;;
63217;SDS011;49314;48.278;16.378;2023-06-05T01:48:27;13.50;;;12.43;;
63217;SDS011;49314;48.278;16.378;2023-06-05T01:50:58;12.57;;;11.57;;
63217;SDS011;49314;48.278;16.378;2023-06-05T01:53:24;12.85;;;11.57;;
63217;SDS011;49314;48.278;16.378;2023-06-05T01:55:50;13.50;;;12.23;;
63217;SDS011;49314;48.278;16.378;2023-06-05T01:58:19;14.80;;;13.70;;
63217;SDS011;49314;48.278;16.378;2023-06-05T02:00:45;15.10;;;13.90;;
63217;SDS011;49314;48.278;16.378;2023-06-05T02:03:11;13.50;;;12.40;;
63217;SDS011;49314;48.278;16.378;2023-06-05T02:05:36;14.45;;;13.35;;
63217;SDS011;49314;48.278;16.378;2023-06-05T02:08:02;13.13;;;12.17;;
63217;SDS011;49314;48.278;16.378;2023-06-05T02:10:30;13.80;;;12.52;;
63217;SDS011;49314;48.278;16.378;2023-06-05T02:12:56;13.90;;;12.40;;
63217;SDS011;49314;48.278;16.378;2023-06-05T02:15:21;15.50;;;14.23;;
63217;SDS011;49314;48.278;16.378;2023-06-05T02:17:48;13.65;;;12.63;;
63217;SDS011;49314;48.278;16.378;2023-06-05T02:20:18;14.38;;;13.20;;
63217;SDS011;49314;48.278;16.378;2023-06-05T02:22:44;14.77;;;13.68;;
63217;SDS011;49314;48.278;16.378;2023-06-05T02:25:10;13.50;;;12.45;;
63217;SDS011;49314;48.278;16.378;2023-06-05T02:27:36;13.57;;;12.40;;
63217;SDS011;49314;48.278;16.378;2023-06-05T02:30:06;14.35;;;13.23;;
63217;SDS011;49314;48.278;16.378;2023-06-05T02:32:34;14.30;;;13.02;;
63217;SDS011;49314;48.278;16.378;2023-06-05T02:35:00;13.98;;;12.80;;
63217;SDS011;49314;48.278;16.378;2023-06-05T02:37:28;14.77;;;13.57;;
63217;SDS011;49314;48.278;16.378;2023-06-05T02:39:53;14.48;;;13.27;;
63217;SDS011;49314;48.278;16.378;2023-06-05T02:42:18;14.73;;;13.70;;
63217;SDS011;49314;48.278;16.378;2023-06-05T02:44:45;15.95;;;14.73;;
63217;SDS011;49314;48.278;16.378;2023-06-05T02:47:10;14.57;;;13.60;;
63217;SDS011;49314;48.278;16.378;2023-06-05T02:49:35;15.25;;;13.70;;
63217;SDS011;49314;48.278;16.378;2023-06-05T02:52:02;14.45;;;13.35;;
63217;SDS011;49314;48.278;16.378;2023-06-05T02:54:27;14.57;;;13.27;;
63217;SDS011;49314;48.278;16.378;2023-06-05T02:56:53;16.75;;;15.35;;
63217;SDS011;49314;48.278;16.378;2023-06-05T02:59:19;13.90;;;12.80;;
63217;SDS011;49314;48.278;16.378;2023-06-05T03:01:47;16.13;;;14.85;;
63217;SDS011;49314;48.278;16.378;2023-06-05T03:04:15;16.23;;;14.90;;
63217;SDS011;49314;48.278;16.378;2023-06-05T03:06:45;14.73;;;13.50;;
63217;SDS011;49314;48.278;16.378;2023-06-05T03:09:11;16.02;;;14.77;;
63217;SDS011;49314;48.278;16.378;2023-06-05T03:11:37;15.13;;;13.93;;
63217;SDS011;49314;48.278;16.378;2023-06-05T03:14:02;16.20;;;14.70;;
63217;SDS011;49314;48.278;16.378;2023-06-05T03:16:27;16.30;;;14.90;;
63217;SDS011;49314;48.278;16.378;2023-06-05T03:18:58;16.45;;;15.15;;
63217;SDS011;49314;48.278;16.378;2023-06-05T03:21:23;16.10;;;14.55;;
63217;SDS011;49314;48.278;16.378;2023-06-05T03:23:48;14.23;;;13.00;;
63217;SDS011;49314;48.278;16.378;2023-06-05T03:26:14;15.68;;;14.35;;
63217;SDS011;49314;48.278;16.378;2023-06-05T03:28:39;15.85;;;14.38;;
63217;SDS011;49314;48.278;16.378;2023-06-05T03:31:05;15.50;;;14.40;;
63217;SDS011;49314;48.278;16.378;2023-06-05T03:33:30;15.10;;;13.90;;
63217;SDS011;49314;48.278;16.378;2023-06-05T03:35:55;15.30;;;14.07;;
63217;SDS011;49314;48.278;16.378;2023-06-05T03:38:20;13.00;;;11.82;;
63217;SDS011;49314;48.278;16.378;2023-06-05T03:40:46;14.80;;;13.80;;
63217;SDS011;49314;48.278;16.378;2023-06-05T03:43:11;15.95;;;14.57;;
63217;SDS011;49314;48.278;16.378;2023-06-05T03:45:36;15.35;;;14.10;;
63217;SDS011;49314;48.278;16.378;2023-06-05T03:48:02;14.88;;;13.63;;
63217;SDS011;49314;48.278;16.378;2023-06-05T03:50:27;16.48;;;14.88;;
63217;SDS011;49314;48.278;16.378;2023-06-05T03:52:54;15.50;;;14.18;;
63217;SDS011;49314;48.278;16.378;2023-06-05T03:55:19;16.08;;;14.88;;
63217;SDS011;49314;48.278;16.378;2023-06-05T03:57:47;14.95;;;13.55;;
63217;SDS011;49314;48.278;16.378;2023-06-05T04:00:13;14.95;;;13.85;;
63217;SDS011;49314;48.278;16.378;2023-06-05T04:02:39;15.00;;;13.70;;
63217;SDS011;49314;48.278;16.378;2023-06-05T04:05:05;14.30;;;13.23;;
63217;SDS011;49314;48.278;16.378;2023-06-05T04:07:30;14.15;;;13.05;;
63217;SDS011;49314;48.278;16.378;2023-06-05T04:09:56;14.97;;;13.87;;
63217;SDS011;49314;48.278;16.378;2023-06-05T04:12:21;14.40;;;13.30;;
63217;SDS011;49314;48.278;16.378;2023-06-05T04:14:47;13.95;;;12.85;;
63217;SDS011;49314;48.278;16.378;2023-06-05T04:17:12;15.73;;;14.52;;
63217;SDS011;49314;48.278;16.378;2023-06-05T04:19:38;13.85;;;12.75;;
63217;SDS011;49314;48.278;16.378;2023-06-05T04:22:04;14.30;;;13.23;;
63217;SDS011;49314;48.278;16.378;2023-06-05T04:24:29;12.23;;;11.32;;
63217;SDS011;49314;48.278;16.378;2023-06-05T04:26:55;14.43;;;13.23;;
63217;SDS011;49314;48.278;16.378;2023-06-05T04:29:20;13.38;;;12.05;;
63217;SDS011;49314;48.278;16.378;2023-06-05T04:31:46;14.10;;;12.90;;
63217;SDS011;49314;48.278;16.378;2023-06-05T04:34:12;14.45;;;13.40;;
63217;SDS011;49314;48.278;16.378;2023-06-05T04:36:38;12.45;;;11.32;;
63217;SDS011;49314;48.278;16.378;2023-06-05T04:39:03;13.75;;;12.65;;
63217;SDS011;49314;48.278;16.378;2023-06-05T04:41:30;13.48;;;12.48;;
63217;SDS011;49314;48.278;16.378;2023-06-05T04:43:55;13.77;;;12.50;;
63217;SDS011;49314;48.278;16.378;2023-06-05T04:46:22;12.10;;;11.20;;
63217;SDS011;49314;48.278;16.378;2023-06-05T04:48:47;13.00;;;11.77;;
63217;SDS011;49314;48.278;16.378;2023-06-05T04:51:12;13.15;;;12.13;;
63217;SDS011;49314;48.278;16.378;2023-06-05T04:53:38;14.55;;;13.30;;
63217;SDS011;49314;48.278;16.378;2023-06-05T04:56:03;14.13;;;12.97;;
63217;SDS011;49314;48.278;16.378;2023-06-05T04:58:28;13.82;;;12.77;;
63217;SDS011;49314;48.278;16.378;2023-06-05T05:00:54;15.35;;;14.15;;
63217;SDS011;49314;48.278;16.378;2023-06-05T05:03:20;13.52;;;12.55;;
63217;SDS011;49314;48.278;16.378;2023-06-05T05:05:45;13.63;;;12.45;;
63217;SDS011;49314;48.278;16.378;2023-06-05T05:08:10;13.57;;;12.27;;
63217;SDS011;49314;48.278;16.378;2023-06-05T05:10:36;14.07;;;12.88;;
63217;SDS011;49314;48.278;16.378;2023-06-05T05:13:02;12.73;;;11.88;;
63217;SDS011;49314;48.278;16.378;2023-06-05T05:15:28;11.50;;;10.70;;
63217;SDS011;49314;48.278;16.378;2023-06-05T05:17:56;12.27;;;11.23;;
63217;SDS011;49314;48.278;16.378;2023-06-05T05:20:22;17.08;;;11.50;;
63217;SDS011;49314;48.278;16.378;2023-06-05T05:22:47;12.65;;;11.77;;
63217;SDS011;49314;48.278;16.378;2023-06-05T05:25:12;12.43;;;11.45;;
63217;SDS011;49314;48.278;16.378;2023-06-05T05:27:37;10.85;;;9.95;;
63217;SDS011;49314;48.278;16.378;2023-06-05T05:30:03;10.20;;;9.40;;
63217;SDS011;49314;48.278;16.378;2023-06-05T05:32:29;10.43;;;9.43;;
63217;SDS011;49314;48.278;16.378;2023-06-05T05:34:54;9.60;;;8.87;;
63217;SDS011;49314;48.278;16.378;2023-06-05T05:37:20;10.52;;;9.50;;
63217;SDS011;49314;48.278;16.378;2023-06-05T05:39:45;9.88;;;9.13;;
63217;SDS011;49314;48.278;16.378;2023-06-05T05:42:11;10.27;;;9.35;;
63217;SDS011;49314;48.278;16.378;2023-06-05T05:44:36;11.73;;;10.53;;
63217;SDS011;49314;48.278;16.378;2023-06-05T05:47:01;11.45;;;10.57;;
63217;SDS011;49314;48.278;16.378;2023-06-05T05:49:26;11.13;;;10.23;;
63217;SDS011;49314;48.278;16.378;2023-06-05T05:51:51;13.15;;;11.88;;
63217;SDS011;49314;48.278;16.378;2023-06-05T05:54:17;12.13;;;10.93;;
63217;SDS011;49314;48.278;16.378;2023-06-05T05:56:42;12.13;;;11.13;;
63217;SDS011;49314;48.278;16.378;2023-06-05T05:59:07;13.93;;;12.80;;
63217;SDS011;49314;48.278;16.378;2023-06-05T06:01:33;14.23;;;12.93;;
63217;SDS011;49314;48.278;16.378;2023-06-05T06:03:58;14.15;;;12.75;;
63217;SDS011;49314;48.278;16.378;2023-06-05T06:06:23;12.13;;;11.20;;
63217;SDS011;49314;48.278;16.378;2023-06-05T06:08:49;13.00;;;11.82;;
63217;SDS011;49314;48.278;16.378;2023-06-05T06:11:14;13.82;;;12.52;;
63217;SDS011;49314;48.278;16.378;2023-06-05T06:13:40;11.10;;;10.10;;
63217;SDS011;49314;48.278;16.378;2023-06-05T06:16:06;11.23;;;10.35;;
63217;SDS011;49314;48.278;16.378;2023-06-05T06:18:32;13.35;;;10.60;;
63217;SDS011;49314;48.278;16.378;2023-06-05T06:20:57;10.77;;;9.88;;
63217;SDS011;49314;48.278;16.378;2023-06-05T06:23:23;9.55;;;8.77;;
63217;SDS011;49314;48.278;16.378;2023-06-05T06:25:48;11.77;;;9.97;;
63217;SDS011;49314;48.278;16.378;2023-06-05T06:28:14;12.63;;;11.32;;
63217;SDS011;49314;48.278;16.378;2023-06-05T06:30:39;10.83;;;9.80;;
63217;SDS011;49314;48.278;16.378;2023-06-05T06:33:04;12.00;;;10.83;;
63217;SDS011;49314;48.278;16.378;2023-06-05T06:35:30;11.63;;;10.53;;
63217;SDS011;49314;48.278;16.378;2023-06-05T06:37:56;10.93;;;10.02;;
63217;SDS011;49314;48.278;16.378;2023-06-05T06:40:22;11.27;;;10.15;;
63217;SDS011;49314;48.278;16.378;2023-06-05T06:42:48;13.13;;;10.23;;
63217;SDS011;49314;48.278;16.378;2023-06-05T06:45:14;12.10;;;10.98;;
63217;SDS011;49314;48.278;16.378;2023-06-05T06:47:39;12.18;;;11.07;;
63217;SDS011;49314;48.278;16.378;2023-06-05T06:50:05;12.95;;;11.75;;
63217;SDS011;49314;48.278;16.378;2023-06-05T06:52:31;12.65;;;11.48;;
63217;SDS011;49314;48.278;16.378;2023-06-05T06:54:56;11.68;;;10.68;;
63217;SDS011;49314;48.278;16.378;2023-06-05T06:57:21;12.07;;;11.02;;
63217;SDS011;49314;48.278;16.378;2023-06-05T06:59:47;10.90;;;9.90;;
63217;SDS011;49314;48.278;16.378;2023-06-05T07:02:13;11.82;;;10.70;;
63217;SDS011;49314;48.278;16.378;2023-06-05T07:04:39;11.90;;;11.05;;
63217;SDS011;49314;48.278;16.378;2023-06-05T07:07:07;13.02;;;11.90;;
63217;SDS011;49314;48.278;16.378;2023-06-05T07:09:32;15.07;;;13.63;;
63217;SDS011;49314;48.278;16.378;2023-06-05T07:11:57;12.05;;;10.95;;
63217;SDS011;49314;48.278;16.378;2023-06-05T07:14:23;8.88;;;8.18;;
63217;SDS011;49314;48.278;16.378;2023-06-05T07:16:48;10.27;;;9.27;;
63217;SDS011;49314;48.278;16.378;2023-06-05T07:19:16;8.70;;;7.68;;
63217;SDS011;49314;48.278;16.378;2023-06-05T07:21:41;8.60;;;7.90;;
63217;SDS011;49314;48.278;16.378;2023-06-05T07:24:07;9.02;;;8.25;;
63217;SDS011;49314;48.278;16.378;2023-06-05T07:26:33;9.85;;;8.98;;
63217;SDS011;49314;48.278;16.378;2023-06-05T07:28:58;8.95;;;8.13;;
63217;SDS011;49314;48.278;16.378;2023-06-05T07:31:23;7.70;;;6.90;;
63217;SDS011;49314;48.278;16.378;2023-06-05T07:33:49;8.00;;;7.20;;
63217;SDS011;49314;48.278;16.378;2023-06-05T07:36:14;7.25;;;6.65;;
63217;SDS011;49314;48.278;16.378;2023-06-05T07:38:39;8.88;;;6.82;;
63217;SDS011;49314;48.278;16.378;2023-06-05T07:41:06;7.45;;;6.75;;
63217;SDS011;49314;48.278;16.378;2023-06-05T07:43:31;7.30;;;6.55;;
63217;SDS011;49314;48.278;16.378;2023-06-05T07:45:57;7.57;;;6.82;;
63217;SDS011;49314;48.278;16.378;2023-06-05T07:48:22;7.20;;;6.50;;
63217;SDS011;49314;48.278;16.378;2023-06-05T07:50:47;9.33;;;5.63;;
63217;SDS011;49314;48.278;16.378;2023-06-05T07:53:12;5.35;;;4.95;;
63217;SDS011;49314;48.278;16.378;2023-06-05T07:55:38;7.23;;;6.63;;
63217;SDS011;49314;48.278;16.378;2023-06-05T07:58:03;6.97;;;6.47;;
63217;SDS011;49314;48.278;16.378;2023-06-05T08:00:28;10.73;;;6.47;;
63217;SDS011;49314;48.278;16.378;2023-06-05T08:02:53;7.72;;;7.03;;
63217;SDS011;49314;48.278;16.378;2023-06-05T08:05:19;9.70;;;5.97;;
63217;SDS011;49314;48.278;16.378;2023-06-05T08:07:44;7.63;;;6.60;;
63217;SDS011;49314;48.278;16.378;2023-06-05T08:10:10;7.68;;;5.68;;
63217;SDS011;49314;48.278;16.378;2023-06-05T08:12:36;7.57;;;6.00;;
63217;SDS011;49314;48.278;16.378;2023-06-05T08:15:01;7.33;;;6.63;;
63217;SDS011;49314;48.278;16.378;2023-06-05T08:17:27;6.40;;;5.80;;
63217;SDS011;49314;48.278;16.378;2023-06-05T08:19:52;7.38;;;6.63;;
63217;SDS011;49314;48.278;16.378;2023-06-05T08:22:18;7.33;;;6.73;;
63217;SDS011;49314;48.278;16.378;2023-06-05T08:24:44;6.95;;;6.38;;
63217;SDS011;49314;48.278;16.378;2023-06-05T08:27:09;7.57;;;6.85;;
63217;SDS011;49314;48.278;16.378;2023-06-05T08:29:35;7.13;;;6.53;;
63217;SDS011;49314;48.278;16.378;2023-06-05T08:32:02;7.60;;;7.00;;
63217;SDS011;49314;48.278;16.378;2023-06-05T08:34:27;10.77;;;7.60;;
63217;SDS011;49314;48.278;16.378;2023-06-05T08:36:53;7.47;;;6.70;;
63217;SDS011;49314;48.278;16.378;2023-06-05T08:39:18;7.40;;;6.70;;
63217;SDS011;49314;48.278;16.378;2023-06-05T08:41:43;7.65;;;6.88;;
63217;SDS011;49314;48.278;16.378;2023-06-05T08:44:11;9.43;;;6.38;;
63217;SDS011;49314;48.278;16.378;2023-06-05T08:46:36;6.63;;;6.03;;
63217;SDS011;49314;48.278;16.378;2023-06-05T08:49:07;6.70;;;5.63;;
63217;SDS011;49314;48.278;16.378;2023-06-05T08:51:33;6.18;;;5.57;;
63217;SDS011;49314;48.278;16.378;2023-06-05T08:54:01;8.87;;;6.37;;
63217;SDS011;49314;48.278;16.378;2023-06-05T08:56:28;6.70;;;6.10;;
63217;SDS011;49314;48.278;16.378;2023-06-05T08:58:54;6.65;;;6.07;;
63217;SDS011;49314;48.278;16.378;2023-06-05T09:01:19;7.35;;;6.63;;
63217;SDS011;49314;48.278;16.378;2023-06-05T09:03:45;7.20;;;6.57;;
63217;SDS011;49314;48.278;16.378;2023-06-05T09:06:10;7.65;;;6.95;;
63217;SDS011;49314;48.278;16.378;2023-06-05T09:08:35;8.30;;;7.38;;
63217;SDS011;49314;48.278;16.378;2023-06-05T09:13:46;8.13;;;6.55;;
63217;SDS011;49314;48.278;16.378;2023-06-05T09:16:11;9.00;;;7.00;;
63217;SDS011;49314;48.278;16.378;2023-06-05T09:18:37;14.03;;;7.00;;
63217;SDS011;49314;48.278;16.378;2023-06-05T09:21:16;10.15;;;6.50;;
63217;SDS011;49314;48.278;16.378;2023-06-05T09:23:41;7.80;;;7.07;;
63217;SDS011;49314;48.278;16.378;2023-06-05T09:26:07;7.87;;;5.93;;
63217;SDS011;49314;48.278;16.378;2023-06-05T09:28:34;7.82;;;7.05;;
63217;SDS011;49314;48.278;16.378;2023-06-05T09:31:00;7.93;;;7.32;;
63217;SDS011;49314;48.278;16.378;2023-06-05T09:33:32;59.33;;;15.75;;
63217;SDS011;49314;48.278;16.378;2023-06-05T09:38:27;7.18;;;6.05;;
63217;SDS011;49314;48.278;16.378;2023-06-05T09:40:52;6.03;;;4.90;;
63217;SDS011;49314;48.278;16.378;2023-06-05T09:43:20;7.00;;;5.90;;
63217;SDS011;49314;48.278;16.378;2023-06-05T09:45:47;6.25;;;5.75;;
63217;SDS011;49314;48.278;16.378;2023-06-05T09:48:13;7.70;;;5.70;;
63217;SDS011;49314;48.278;16.378;2023-06-05T09:50:39;6.32;;;5.68;;
63217;SDS011;49314;48.278;16.378;2023-06-05T09:53:04;5.93;;;5.20;;
63217;SDS011;49314;48.278;16.378;2023-06-05T09:55:30;6.25;;;5.65;;
63217;SDS011;49314;48.278;16.378;2023-06-05T09:57:55;6.47;;;5.87;;
63217;SDS011;49314;48.278;16.378;2023-06-05T10:00:22;8.13;;;5.43;;
63217;SDS011;49314;48.278;16.378;2023-06-05T10:02:47;9.97;;;6.70;;
63217;SDS011;49314;48.278;16.378;2023-06-05T10:05:13;10.10;;;6.32;;
63217;SDS011;49314;48.278;16.378;2023-06-05T10:07:39;6.82;;;6.22;;
63217;SDS011;49314;48.278;16.378;2023-06-05T10:10:05;6.18;;;5.60;;
63217;SDS011;49314;48.278;16.378;2023-06-05T10:12:30;5.82;;;5.32;;
63217;SDS011;49314;48.278;16.378;2023-06-05T10:14:56;6.13;;;5.65;;
63217;SDS011;49314;48.278;16.378;2023-06-05T10:17:22;6.88;;;6.32;;
63217;SDS011;49314;48.278;16.378;2023-06-05T10:19:48;7.13;;;5.57;;
63217;SDS011;49314;48.278;16.378;2023-06-05T10:22:16;7.63;;;6.23;;
63217;SDS011;49314;48.278;16.378;2023-06-05T10:24:43;5.68;;;5.18;;
63217;SDS011;49314;48.278;16.378;2023-06-05T10:34:44;9.35;;;7.22;;
63217;SDS011;49314;48.278;16.378;2023-06-05T10:39:57;8.52;;;7.57;;
63217;SDS011;49314;48.278;16.378;2023-06-05T10:42:26;7.97;;;7.32;;
63217;SDS011;49314;48.278;16.378;2023-06-05T10:44:51;9.30;;;8.40;;
63217;SDS011;49314;48.278;16.378;2023-06-05T10:52:43;9.30;;;8.23;;
63217;SDS011;49314;48.278;16.378;2023-06-05T10:55:09;8.45;;;7.75;;
63217;SDS011;49314;48.278;16.378;2023-06-05T11:00:18;10.50;;;8.70;;
63217;SDS011;49314;48.278;16.378;2023-06-05T11:02:46;9.00;;;8.10;;
63217;SDS011;49314;48.278;16.378;2023-06-05T11:05:12;8.52;;;7.72;;
63217;SDS011;49314;48.278;16.378;2023-06-05T11:07:37;112.15;;;26.83;;
63217;SDS011;49314;48.278;16.378;2023-06-05T11:17:37;8.77;;;7.97;;
63217;SDS011;49314;48.278;16.378;2023-06-05T11:20:03;8.10;;;7.20;;
63217;SDS011;49314;48.278;16.378;2023-06-05T11:27:53;8.52;;;7.63;;
63217;SDS011;49314;48.278;16.378;2023-06-05T11:30:22;8.70;;;7.88;;
63217;SDS011;49314;48.278;16.378;2023-06-05T11:32:48;8.40;;;7.65;;
63217;SDS011;49314;48.278;16.378;2023-06-05T11:35:16;9.98;;;8.38;;
63217;SDS011;49314;48.278;16.378;2023-06-05T11:37:45;6.70;;;5.63;;
63217;SDS011;49314;48.278;16.378;2023-06-05T11:40:10;7.53;;;6.57;;
63217;SDS011;49314;48.278;16.378;2023-06-05T11:42:36;6.43;;;5.85;;
63217;SDS011;49314;48.278;16.378;2023-06-05T11:45:03;5.40;;;4.88;;
63217;SDS011;49314;48.278;16.378;2023-06-05T11:47:35;5.35;;;4.95;;
63217;SDS011;49314;48.278;16.378;2023-06-05T11:50:07;7.00;;;5.90;;
63217;SDS011;49314;48.278;16.378;2023-06-05T11:52:33;7.18;;;6.43;;
63217;SDS011;49314;48.278;16.378;2023-06-05T11:55:10;11.68;;;6.93;;
63217;SDS011;49314;48.278;16.378;2023-06-05T11:57:41;8.32;;;6.25;;
63217;SDS011;49314;48.278;16.378;2023-06-05T12:00:06;9.80;;;5.63;;
63217;SDS011;49314;48.278;16.378;2023-06-05T12:02:32;7.97;;;4.93;;
63217;SDS011;49314;48.278;16.378;2023-06-05T12:04:58;6.55;;;5.03;;
63217;SDS011;49314;48.278;16.378;2023-06-05T12:07:27;6.22;;;5.65;;
63217;SDS011;49314;48.278;16.378;2023-06-05T12:09:53;6.85;;;5.05;;
63217;SDS011;49314;48.278;16.378;2023-06-05T12:12:18;11.55;;;5.97;;
63217;SDS011;49314;48.278;16.378;2023-06-05T12:14:43;5.40;;;4.43;;
63217;SDS011;49314;48.278;16.378;2023-06-05T12:17:09;10.67;;;7.57;;
63217;SDS011;49314;48.278;16.378;2023-06-05T12:19:35;6.20;;;5.18;;
63217;SDS011;49314;48.278;16.378;2023-06-05T12:22:01;7.28;;;5.13;;
63217;SDS011;49314;48.278;16.378;2023-06-05T12:24:26;7.85;;;5.10;;
63217;SDS011;49314;48.278;16.378;2023-06-05T12:29:18;7.78;;;5.55;;
63217;SDS011;49314;48.278;16.378;2023-06-05T12:31:45;8.85;;;4.43;;
63217;SDS011;49314;48.278;16.378;2023-06-05T12:34:10;4.47;;;4.03;;
63217;SDS011;49314;48.278;16.378;2023-06-05T12:36:39;7.50;;;3.58;;
63217;SDS011;49314;48.278;16.378;2023-06-05T12:39:11;7.30;;;3.50;;
63217;SDS011;49314;48.278;16.378;2023-06-05T12:41:37;4.60;;;3.38;;
63217;SDS011;49314;48.278;16.378;2023-06-05T12:44:03;5.40;;;4.43;;
63217;SDS011;49314;48.278;16.378;2023-06-05T12:46:33;6.32;;;3.67;;
63217;SDS011;49314;48.278;16.378;2023-06-05T12:49:02;7.75;;;4.00;;
63217;SDS011;49314;48.278;16.378;2023-06-05T12:51:27;7.95;;;4.93;;
63217;SDS011;49314;48.278;16.378;2023-06-05T12:53:53;4.82;;;4.35;;
63217;SDS011;49314;48.278;16.378;2023-06-05T12:56:19;15.95;;;5.45;;
63217;SDS011;49314;48.278;16.378;2023-06-05T12:58:50;5.00;;;4.50;;
63217;SDS011;49314;48.278;16.378;2023-06-05T13:01:15;25.98;;;6.75;;
63217;SDS011;49314;48.278;16.378;2023-06-05T13:03:41;7.40;;;5.13;;
63217;SDS011;49314;48.278;16.378;2023-06-05T13:06:07;8.60;;;5.13;;
63217;SDS011;49314;48.278;16.378;2023-06-05T13:08:33;4.45;;;4.15;;
63217;SDS011;49314;48.278;16.378;2023-06-05T13:10:58;17.83;;;4.87;;
63217;SDS011;49314;48.278;16.378;2023-06-05T13:13:23;8.13;;;5.10;;
63217;SDS011;49314;48.278;16.378;2023-06-05T13:15:48;28.53;;;8.37;;
63217;SDS011;49314;48.278;16.378;2023-06-05T13:18:13;5.43;;;4.93;;
63217;SDS011;49314;48.278;16.378;2023-06-05T13:20:39;5.45;;;4.97;;
63217;SDS011;49314;48.278;16.378;2023-06-05T13:23:05;5.47;;;4.50;;
63217;SDS011;49314;48.278;16.378;2023-06-05T13:25:32;8.05;;;4.50;;
63217;SDS011;49314;48.278;16.378;2023-06-05T13:27:57;6.97;;;4.95;;
63217;SDS011;49314;48.278;16.378;2023-06-05T13:30:23;35.40;;;8.23;;
63217;SDS011;49314;48.278;16.378;2023-06-05T13:32:49;6.70;;;6.13;;
63217;SDS011;49314;48.278;16.378;2023-06-05T13:35:15;19.75;;;7.13;;
63217;SDS011;49314;48.278;16.378;2023-06-05T13:37:40;7.30;;;6.38;;
63217;SDS011;49314;48.278;16.378;2023-06-05T13:40:06;14.48;;;6.43;;
63217;SDS011;49314;48.278;16.378;2023-06-05T13:42:35;8.80;;;5.47;;
63217;SDS011;49314;48.278;16.378;2023-06-05T13:45:00;11.30;;;6.03;;
63217;SDS011;49314;48.278;16.378;2023-06-05T13:47:25;6.77;;;5.47;;
63217;SDS011;49314;48.278;16.378;2023-06-05T13:49:50;6.17;;;5.37;;
63217;SDS011;49314;48.278;16.378;2023-06-05T13:52:18;7.90;;;6.57;;
63217;SDS011;49314;48.278;16.378;2023-06-05T13:54:43;6.63;;;5.93;;
63217;SDS011;49314;48.278;16.378;2023-06-05T13:57:08;6.20;;;5.53;;
63217;SDS011;49314;48.278;16.378;2023-06-05T13:59:34;5.65;;;4.97;;
63217;SDS011;49314;48.278;16.378;2023-06-05T14:01:59;11.80;;;6.38;;
63217;SDS011;49314;48.278;16.378;2023-06-05T14:04:24;8.60;;;5.57;;
63217;SDS011;49314;48.278;16.378;2023-06-05T14:06:49;6.37;;;5.87;;
63217;SDS011;49314;48.278;16.378;2023-06-05T14:09:15;7.10;;;5.63;;
63217;SDS011;49314;48.278;16.378;2023-06-05T14:11:41;7.90;;;6.20;;
63217;SDS011;49314;48.278;16.378;2023-06-05T14:14:09;17.65;;;6.90;;
63217;SDS011;49314;48.278;16.378;2023-06-05T14:16:35;7.00;;;6.38;;
63217;SDS011;49314;48.278;16.378;2023-06-05T14:19:00;14.13;;;8.37;;
63217;SDS011;49314;48.278;16.378;2023-06-05T14:21:25;10.80;;;7.07;;
63217;SDS011;49314;48.278;16.378;2023-06-05T14:23:50;11.05;;;7.25;;
63217;SDS011;49314;48.278;16.378;2023-06-05T14:26:16;54.40;;;11.97;;
63217;SDS011;49314;48.278;16.378;2023-06-05T14:28:41;10.13;;;7.73;;
63217;SDS011;49314;48.278;16.378;2023-06-05T14:31:06;8.73;;;6.75;;
63217;SDS011;49314;48.278;16.378;2023-06-05T14:33:31;7.73;;;7.07;;
63217;SDS011;49314;48.278;16.378;2023-06-05T14:35:57;8.60;;;6.63;;
63217;SDS011;49314;48.278;16.378;2023-06-05T14:38:24;10.95;;;7.50;;
63217;SDS011;49314;48.278;16.378;2023-06-05T14:40:49;8.00;;;7.03;;
63217;SDS011;49314;48.278;16.378;2023-06-05T14:43:16;9.65;;;8.45;;
63217;SDS011;49314;48.278;16.378;2023-06-05T14:45:41;9.82;;;8.93;;
63217;SDS011;49314;48.278;16.378;2023-06-05T14:48:07;8.88;;;8.07;;
63217;SDS011;49314;48.278;16.378;2023-06-05T14:50:35;7.53;;;6.82;;
63217;SDS011;49314;48.278;16.378;2023-06-05T14:53:00;9.60;;;8.37;;
63217;SDS011;49314;48.278;16.378;2023-06-05T14:55:26;9.73;;;8.93;;
63217;SDS011;49314;48.278;16.378;2023-06-05T14:57:51;9.00;;;8.13;;